sensor_id;sensor_type;location;lat;lon;timestamp;P1;durP1;ratioP1;P2;durP2;ratioP2
21743;SDS011;11034;48.556;9.342;2023-06-22T00:00:33;15.32;;;8.15;;
21743;SDS011;11034;48.556;9.342;2023-06-22T00:03:01;12.15;;;7.60;;
21743;SDS011;11034;48.556;9.342;2023-06-22T00:05:29;9.82;;;7.53;;
21743;SDS011;11034;48.556;9.342;2023-06-22T00:08:01;10.32;;;7.82;;
21743;SDS011;11034;48.556;9.342;2023-06-22T00:10:31;9.63;;;7.20;;
21743;SDS011;11034;48.556;9.342;2023-06-22T00:13:02;14.13;;;7.57;;
21743;SDS011;11034;48.556;9.342;2023-06-22T00:15:30;11.18;;;8.30;;
21743;SDS011;11034;48.556;9.342;2023-06-22T00:17:58;15.30;;;8.40;;
21743;SDS011;11034;48.556;9.342;2023-06-22T00:20:27;17.35;;;9.48;;
21743;SDS011;11034;48.556;9.342;2023-06-22T00:22:57;13.60;;;8.57;;
21743;SDS011;11034;48.556;9.342;2023-06-22T00:25:26;11.60;;;8.05;;
21743;SDS011;11034;48.556;9.342;2023-06-22T00:27:55;12.88;;;8.43;;
21743;SDS011;11034;48.556;9.342;2023-06-22T00:30:22;11.07;;;7.57;;
21743;SDS011;11034;48.556;9.342;2023-06-22T00:32:51;12.38;;;8.52;;
21743;SDS011;11034;48.556;9.342;2023-06-22T00:35:20;16.50;;;7.70;;
21743;SDS011;11034;48.556;9.342;2023-06-22T00:37:48;13.48;;;8.70;;
21743;SDS011;11034;48.556;9.342;2023-06-22T00:40:19;16.10;;;8.45;;
21743;SDS011;11034;48.556;9.342;2023-06-22T00:42:48;11.70;;;8.52;;
21743;SDS011;11034;48.556;9.342;2023-06-22T00:45:16;11.48;;;8.18;;
21743;SDS011;11034;48.556;9.342;2023-06-22T00:47:44;9.15;;;7.90;;
21743;SDS011;11034;48.556;9.342;2023-06-22T00:50:13;15.38;;;8.80;;
21743;SDS011;11034;48.556;9.342;2023-06-22T00:52:48;13.02;;;8.73;;
21743;SDS011;11034;48.556;9.342;2023-06-22T00:55:19;11.23;;;8.20;;
21743;SDS011;11034;48.556;9.342;2023-06-22T00:57:49;13.93;;;8.82;;
21743;SDS011;11034;48.556;9.342;2023-06-22T01:00:17;12.57;;;8.48;;
21743;SDS011;11034;48.556;9.342;2023-06-22T01:02:46;17.55;;;9.00;;
21743;SDS011;11034;48.556;9.342;2023-06-22T01:05:18;12.15;;;8.48;;
21743;SDS011;11034;48.556;9.342;2023-06-22T01:07:51;12.43;;;8.48;;
21743;SDS011;11034;48.556;9.342;2023-06-22T01:10:31;12.35;;;8.65;;
21743;SDS011;11034;48.556;9.342;2023-06-22T01:13:06;11.48;;;8.48;;
21743;SDS011;11034;48.556;9.342;2023-06-22T01:15:43;13.60;;;9.25;;
21743;SDS011;11034;48.556;9.342;2023-06-22T01:18:16;13.32;;;8.52;;
21743;SDS011;11034;48.556;9.342;2023-06-22T01:20:45;11.05;;;7.95;;
21743;SDS011;11034;48.556;9.342;2023-06-22T01:23:17;16.27;;;9.00;;
21743;SDS011;11034;48.556;9.342;2023-06-22T01:25:59;12.90;;;9.23;;
21743;SDS011;11034;48.556;9.342;2023-06-22T01:28:40;14.82;;;9.38;;
21743;SDS011;11034;48.556;9.342;2023-06-22T01:31:14;13.75;;;9.57;;
21743;SDS011;11034;48.556;9.342;2023-06-22T01:33:45;18.85;;;10.02;;
21743;SDS011;11034;48.556;9.342;2023-06-22T01:36:17;13.00;;;8.95;;
21743;SDS011;11034;48.556;9.342;2023-06-22T01:38:45;13.50;;;9.75;;
21743;SDS011;11034;48.556;9.342;2023-06-22T01:41:15;17.08;;;10.13;;
21743;SDS011;11034;48.556;9.342;2023-06-22T01:43:45;16.58;;;9.82;;
21743;SDS011;11034;48.556;9.342;2023-06-22T01:46:15;14.98;;;10.50;;
21743;SDS011;11034;48.556;9.342;2023-06-22T01:48:45;17.80;;;10.15;;
21743;SDS011;11034;48.556;9.342;2023-06-22T01:51:14;14.88;;;9.48;;
21743;SDS011;11034;48.556;9.342;2023-06-22T01:53:42;14.27;;;9.18;;
21743;SDS011;11034;48.556;9.342;2023-06-22T01:56:10;16.23;;;10.43;;
21743;SDS011;11034;48.556;9.342;2023-06-22T01:58:44;16.80;;;10.75;;
21743;SDS011;11034;48.556;9.342;2023-06-22T02:01:20;11.52;;;9.70;;
21743;SDS011;11034;48.556;9.342;2023-06-22T02:03:53;13.10;;;9.43;;
21743;SDS011;11034;48.556;9.342;2023-06-22T02:06:31;18.80;;;10.95;;
21743;SDS011;11034;48.556;9.342;2023-06-22T02:09:06;14.60;;;10.48;;
21743;SDS011;11034;48.556;9.342;2023-06-22T02:11:37;18.50;;;10.35;;
21743;SDS011;11034;48.556;9.342;2023-06-22T02:14:09;14.35;;;9.65;;
21743;SDS011;11034;48.556;9.342;2023-06-22T02:16:39;15.00;;;11.20;;
21743;SDS011;11034;48.556;9.342;2023-06-22T02:19:09;12.73;;;9.50;;
21743;SDS011;11034;48.556;9.342;2023-06-22T02:21:37;15.73;;;9.70;;
21743;SDS011;11034;48.556;9.342;2023-06-22T02:24:05;15.73;;;9.82;;
21743;SDS011;11034;48.556;9.342;2023-06-22T02:26:33;11.48;;;9.10;;
21743;SDS011;11034;48.556;9.342;2023-06-22T02:29:02;14.48;;;9.73;;
21743;SDS011;11034;48.556;9.342;2023-06-22T02:31:31;15.00;;;10.30;;
21743;SDS011;11034;48.556;9.342;2023-06-22T02:33:59;13.88;;;10.68;;
21743;SDS011;11034;48.556;9.342;2023-06-22T02:36:27;12.98;;;9.55;;
21743;SDS011;11034;48.556;9.342;2023-06-22T02:38:57;13.45;;;10.23;;
21743;SDS011;11034;48.556;9.342;2023-06-22T02:41:27;17.52;;;10.02;;
21743;SDS011;11034;48.556;9.342;2023-06-22T02:43:55;14.80;;;10.38;;
21743;SDS011;11034;48.556;9.342;2023-06-22T02:46:23;15.57;;;10.25;;
21743;SDS011;11034;48.556;9.342;2023-06-22T02:48:52;13.35;;;10.60;;
21743;SDS011;11034;48.556;9.342;2023-06-22T02:51:20;15.23;;;10.20;;
21743;SDS011;11034;48.556;9.342;2023-06-22T02:53:49;14.50;;;10.70;;
21743;SDS011;11034;48.556;9.342;2023-06-22T02:56:18;16.27;;;10.73;;
21743;SDS011;11034;48.556;9.342;2023-06-22T02:58:51;15.80;;;11.55;;
21743;SDS011;11034;48.556;9.342;2023-06-22T03:01:19;13.60;;;10.07;;
21743;SDS011;11034;48.556;9.342;2023-06-22T03:03:50;16.85;;;11.65;;
21743;SDS011;11034;48.556;9.342;2023-06-22T03:06:20;17.75;;;11.30;;
21743;SDS011;11034;48.556;9.342;2023-06-22T03:08:49;18.80;;;11.48;;
21743;SDS011;11034;48.556;9.342;2023-06-22T03:11:18;14.95;;;10.93;;
21743;SDS011;11034;48.556;9.342;2023-06-22T03:13:46;16.52;;;12.20;;
21743;SDS011;11034;48.556;9.342;2023-06-22T03:16:14;19.33;;;11.43;;
21743;SDS011;11034;48.556;9.342;2023-06-22T03:18:42;17.13;;;11.57;;
21743;SDS011;11034;48.556;9.342;2023-06-22T03:21:11;17.83;;;11.00;;
21743;SDS011;11034;48.556;9.342;2023-06-22T03:23:41;17.42;;;11.57;;
21743;SDS011;11034;48.556;9.342;2023-06-22T03:26:09;18.88;;;11.77;;
21743;SDS011;11034;48.556;9.342;2023-06-22T03:28:38;17.92;;;11.18;;
21743;SDS011;11034;48.556;9.342;2023-06-22T03:31:06;17.10;;;12.00;;
21743;SDS011;11034;48.556;9.342;2023-06-22T03:33:34;18.20;;;11.40;;
21743;SDS011;11034;48.556;9.342;2023-06-22T03:36:02;14.82;;;11.07;;
21743;SDS011;11034;48.556;9.342;2023-06-22T03:38:32;17.42;;;10.77;;
21743;SDS011;11034;48.556;9.342;2023-06-22T03:41:00;17.67;;;11.48;;
21743;SDS011;11034;48.556;9.342;2023-06-22T03:43:28;15.10;;;11.00;;
21743;SDS011;11034;48.556;9.342;2023-06-22T03:45:56;15.35;;;10.38;;
21743;SDS011;11034;48.556;9.342;2023-06-22T03:48:24;14.50;;;10.65;;
21743;SDS011;11034;48.556;9.342;2023-06-22T03:50:52;14.40;;;10.32;;
21743;SDS011;11034;48.556;9.342;2023-06-22T03:53:21;13.77;;;9.57;;
21743;SDS011;11034;48.556;9.342;2023-06-22T03:55:50;16.23;;;9.75;;
21743;SDS011;11034;48.556;9.342;2023-06-22T03:58:19;16.08;;;9.48;;
21743;SDS011;11034;48.556;9.342;2023-06-22T04:00:48;15.23;;;9.25;;
21743;SDS011;11034;48.556;9.342;2023-06-22T04:03:17;15.75;;;8.85;;
21743;SDS011;11034;48.556;9.342;2023-06-22T04:05:46;14.60;;;9.35;;
21743;SDS011;11034;48.556;9.342;2023-06-22T04:08:14;17.55;;;9.98;;
21743;SDS011;11034;48.556;9.342;2023-06-22T04:10:43;18.52;;;9.48;;
21743;SDS011;11034;48.556;9.342;2023-06-22T04:13:12;12.57;;;8.25;;
21743;SDS011;11034;48.556;9.342;2023-06-22T04:15:40;18.52;;;9.05;;
21743;SDS011;11034;48.556;9.342;2023-06-22T04:18:08;11.82;;;7.55;;
21743;SDS011;11034;48.556;9.342;2023-06-22T04:20:36;11.20;;;7.32;;
21743;SDS011;11034;48.556;9.342;2023-06-22T04:23:05;14.82;;;8.43;;
21743;SDS011;11034;48.556;9.342;2023-06-22T04:25:33;9.65;;;7.75;;
21743;SDS011;11034;48.556;9.342;2023-06-22T04:28:01;13.95;;;8.43;;
21743;SDS011;11034;48.556;9.342;2023-06-22T04:30:32;12.77;;;7.80;;
21743;SDS011;11034;48.556;9.342;2023-06-22T04:33:00;12.23;;;8.32;;
21743;SDS011;11034;48.556;9.342;2023-06-22T04:35:29;12.90;;;8.90;;
21743;SDS011;11034;48.556;9.342;2023-06-22T04:37:57;15.63;;;8.95;;
21743;SDS011;11034;48.556;9.342;2023-06-22T04:40:26;11.85;;;8.30;;
21743;SDS011;11034;48.556;9.342;2023-06-22T04:42:54;14.38;;;8.50;;
21743;SDS011;11034;48.556;9.342;2023-06-22T04:45:22;13.50;;;8.35;;
21743;SDS011;11034;48.556;9.342;2023-06-22T04:47:52;16.17;;;8.02;;
21743;SDS011;11034;48.556;9.342;2023-06-22T04:50:20;10.73;;;7.25;;
21743;SDS011;11034;48.556;9.342;2023-06-22T04:52:50;12.38;;;7.22;;
21743;SDS011;11034;48.556;9.342;2023-06-22T04:55:19;11.65;;;7.57;;
21743;SDS011;11034;48.556;9.342;2023-06-22T04:57:47;13.57;;;7.43;;
21743;SDS011;11034;48.556;9.342;2023-06-22T05:00:16;10.43;;;6.68;;
21743;SDS011;11034;48.556;9.342;2023-06-22T05:02:49;12.80;;;6.05;;
21743;SDS011;11034;48.556;9.342;2023-06-22T05:05:23;10.90;;;6.13;;
21743;SDS011;11034;48.556;9.342;2023-06-22T05:07:51;10.93;;;6.07;;
21743;SDS011;11034;48.556;9.342;2023-06-22T05:10:21;11.02;;;6.03;;
21743;SDS011;11034;48.556;9.342;2023-06-22T05:12:49;11.38;;;6.40;;
21743;SDS011;11034;48.556;9.342;2023-06-22T05:15:17;10.85;;;6.53;;
21743;SDS011;11034;48.556;9.342;2023-06-22T05:17:46;8.93;;;6.00;;
21743;SDS011;11034;48.556;9.342;2023-06-22T05:20:14;13.00;;;5.70;;
21743;SDS011;11034;48.556;9.342;2023-06-22T05:22:46;11.85;;;6.00;;
21743;SDS011;11034;48.556;9.342;2023-06-22T05:25:13;12.55;;;6.63;;
21743;SDS011;11034;48.556;9.342;2023-06-22T05:27:41;12.40;;;6.28;;
21743;SDS011;11034;48.556;9.342;2023-06-22T05:30:10;11.52;;;6.13;;
21743;SDS011;11034;48.556;9.342;2023-06-22T05:32:40;12.57;;;6.15;;
21743;SDS011;11034;48.556;9.342;2023-06-22T05:35:10;10.38;;;5.95;;
21743;SDS011;11034;48.556;9.342;2023-06-22T05:37:38;10.18;;;6.63;;
21743;SDS011;11034;48.556;9.342;2023-06-22T05:40:09;9.73;;;6.10;;
21743;SDS011;11034;48.556;9.342;2023-06-22T05:42:37;10.68;;;6.28;;
21743;SDS011;11034;48.556;9.342;2023-06-22T05:45:07;9.60;;;6.07;;
21743;SDS011;11034;48.556;9.342;2023-06-22T05:47:35;8.70;;;6.30;;
21743;SDS011;11034;48.556;9.342;2023-06-22T05:50:04;8.30;;;5.72;;
21743;SDS011;11034;48.556;9.342;2023-06-22T05:52:38;9.02;;;6.63;;
21743;SDS011;11034;48.556;9.342;2023-06-22T05:55:06;9.63;;;6.80;;
21743;SDS011;11034;48.556;9.342;2023-06-22T05:57:36;10.82;;;6.15;;
21743;SDS011;11034;48.556;9.342;2023-06-22T06:00:05;13.60;;;6.50;;
21743;SDS011;11034;48.556;9.342;2023-06-22T06:02:37;11.32;;;6.40;;
21743;SDS011;11034;48.556;9.342;2023-06-22T06:05:10;10.70;;;6.25;;
21743;SDS011;11034;48.556;9.342;2023-06-22T06:07:40;10.77;;;6.13;;
21743;SDS011;11034;48.556;9.342;2023-06-22T06:10:09;12.38;;;6.20;;
21743;SDS011;11034;48.556;9.342;2023-06-22T06:12:38;11.40;;;6.43;;
21743;SDS011;11034;48.556;9.342;2023-06-22T06:15:06;9.15;;;6.63;;
21743;SDS011;11034;48.556;9.342;2023-06-22T06:17:44;11.18;;;6.18;;
21743;SDS011;11034;48.556;9.342;2023-06-22T06:20:13;11.27;;;7.00;;
21743;SDS011;11034;48.556;9.342;2023-06-22T06:22:41;9.70;;;6.30;;
21743;SDS011;11034;48.556;9.342;2023-06-22T06:25:11;11.00;;;6.03;;
21743;SDS011;11034;48.556;9.342;2023-06-22T06:27:42;10.00;;;7.00;;
21743;SDS011;11034;48.556;9.342;2023-06-22T06:30:11;11.23;;;6.85;;
21743;SDS011;11034;48.556;9.342;2023-06-22T06:32:40;10.35;;;6.72;;
21743;SDS011;11034;48.556;9.342;2023-06-22T06:35:12;11.32;;;6.13;;
21743;SDS011;11034;48.556;9.342;2023-06-22T06:37:43;10.68;;;6.32;;
21743;SDS011;11034;48.556;9.342;2023-06-22T06:40:14;11.65;;;6.80;;
21743;SDS011;11034;48.556;9.342;2023-06-22T06:42:43;12.48;;;6.78;;
21743;SDS011;11034;48.556;9.342;2023-06-22T06:45:16;10.05;;;6.03;;
21743;SDS011;11034;48.556;9.342;2023-06-22T06:47:45;11.70;;;5.72;;
21743;SDS011;11034;48.556;9.342;2023-06-22T06:50:14;7.65;;;5.78;;
21743;SDS011;11034;48.556;9.342;2023-06-22T06:52:42;10.07;;;5.80;;
21743;SDS011;11034;48.556;9.342;2023-06-22T06:55:11;14.50;;;6.50;;
21743;SDS011;11034;48.556;9.342;2023-06-22T06:57:42;10.77;;;6.05;;
21743;SDS011;11034;48.556;9.342;2023-06-22T07:00:11;15.88;;;6.55;;
21743;SDS011;11034;48.556;9.342;2023-06-22T07:02:52;12.25;;;6.03;;
21743;SDS011;11034;48.556;9.342;2023-06-22T07:05:20;9.23;;;5.60;;
21743;SDS011;11034;48.556;9.342;2023-06-22T07:07:48;9.00;;;5.47;;
21743;SDS011;11034;48.556;9.342;2023-06-22T07:10:16;11.55;;;5.40;;
21743;SDS011;11034;48.556;9.342;2023-06-22T07:12:46;12.82;;;5.68;;
21743;SDS011;11034;48.556;9.342;2023-06-22T07:15:14;8.70;;;5.72;;
21743;SDS011;11034;48.556;9.342;2023-06-22T07:17:42;13.30;;;6.50;;
21743;SDS011;11034;48.556;9.342;2023-06-22T07:20:11;9.88;;;5.80;;
21743;SDS011;11034;48.556;9.342;2023-06-22T07:22:40;11.63;;;5.60;;
21743;SDS011;11034;48.556;9.342;2023-06-22T07:25:09;11.35;;;6.28;;
21743;SDS011;11034;48.556;9.342;2023-06-22T07:27:44;12.00;;;5.60;;
21743;SDS011;11034;48.556;9.342;2023-06-22T07:30:14;12.15;;;6.07;;
21743;SDS011;11034;48.556;9.342;2023-06-22T07:32:42;9.25;;;5.80;;
21743;SDS011;11034;48.556;9.342;2023-06-22T07:35:10;11.23;;;5.72;;
21743;SDS011;11034;48.556;9.342;2023-06-22T07:37:39;13.02;;;6.10;;
21743;SDS011;11034;48.556;9.342;2023-06-22T07:40:08;9.02;;;5.85;;
21743;SDS011;11034;48.556;9.342;2023-06-22T07:42:37;11.23;;;5.90;;
21743;SDS011;11034;48.556;9.342;2023-06-22T07:45:07;10.00;;;6.03;;
21743;SDS011;11034;48.556;9.342;2023-06-22T07:47:35;10.35;;;5.90;;
21743;SDS011;11034;48.556;9.342;2023-06-22T07:50:04;14.52;;;5.95;;
21743;SDS011;11034;48.556;9.342;2023-06-22T07:52:33;12.65;;;6.43;;
21743;SDS011;11034;48.556;9.342;2023-06-22T07:55:01;11.90;;;5.95;;
21743;SDS011;11034;48.556;9.342;2023-06-22T07:57:30;14.18;;;6.10;;
21743;SDS011;11034;48.556;9.342;2023-06-22T08:00:00;13.10;;;5.93;;
21743;SDS011;11034;48.556;9.342;2023-06-22T08:02:36;16.85;;;5.70;;
21743;SDS011;11034;48.556;9.342;2023-06-22T08:05:04;11.73;;;6.00;;
21743;SDS011;11034;48.556;9.342;2023-06-22T08:07:46;11.32;;;6.00;;
21743;SDS011;11034;48.556;9.342;2023-06-22T08:10:14;14.43;;;5.93;;
21743;SDS011;11034;48.556;9.342;2023-06-22T08:12:49;13.15;;;5.47;;
21743;SDS011;11034;48.556;9.342;2023-06-22T08:15:18;16.13;;;6.13;;
21743;SDS011;11034;48.556;9.342;2023-06-22T08:17:47;13.63;;;6.40;;
21743;SDS011;11034;48.556;9.342;2023-06-22T08:20:15;15.40;;;6.57;;
21743;SDS011;11034;48.556;9.342;2023-06-22T08:22:44;15.35;;;6.35;;
21743;SDS011;11034;48.556;9.342;2023-06-22T08:25:12;13.82;;;6.13;;
21743;SDS011;11034;48.556;9.342;2023-06-22T08:27:40;12.93;;;6.18;;
21743;SDS011;11034;48.556;9.342;2023-06-22T08:30:13;11.73;;;5.63;;
21743;SDS011;11034;48.556;9.342;2023-06-22T08:32:41;13.55;;;6.60;;
21743;SDS011;11034;48.556;9.342;2023-06-22T08:35:11;11.98;;;6.00;;
21743;SDS011;11034;48.556;9.342;2023-06-22T08:37:39;11.68;;;6.13;;
21743;SDS011;11034;48.556;9.342;2023-06-22T08:40:07;12.25;;;5.90;;
21743;SDS011;11034;48.556;9.342;2023-06-22T08:42:37;13.85;;;6.50;;
21743;SDS011;11034;48.556;9.342;2023-06-22T08:45:08;14.32;;;6.80;;
21743;SDS011;11034;48.556;9.342;2023-06-22T08:47:37;13.30;;;8.02;;
21743;SDS011;11034;48.556;9.342;2023-06-22T08:50:06;14.18;;;7.25;;
21743;SDS011;11034;48.556;9.342;2023-06-22T08:52:36;12.93;;;6.82;;
21743;SDS011;11034;48.556;9.342;2023-06-22T08:55:08;14.40;;;7.07;;
21743;SDS011;11034;48.556;9.342;2023-06-22T08:57:37;10.85;;;6.88;;
21743;SDS011;11034;48.556;9.342;2023-06-22T09:00:06;15.93;;;7.30;;
21743;SDS011;11034;48.556;9.342;2023-06-22T09:02:44;15.70;;;6.70;;
21743;SDS011;11034;48.556;9.342;2023-06-22T09:05:12;10.15;;;6.93;;
21743;SDS011;11034;48.556;9.342;2023-06-22T09:07:42;14.02;;;7.00;;
21743;SDS011;11034;48.556;9.342;2023-06-22T09:10:10;14.20;;;7.25;;
21743;SDS011;11034;48.556;9.342;2023-06-22T09:12:39;14.57;;;6.60;;
21743;SDS011;11034;48.556;9.342;2023-06-22T09:15:07;14.10;;;6.95;;
21743;SDS011;11034;48.556;9.342;2023-06-22T09:17:52;16.40;;;6.85;;
21743;SDS011;11034;48.556;9.342;2023-06-22T09:20:21;13.90;;;6.93;;
21743;SDS011;11034;48.556;9.342;2023-06-22T09:22:50;13.38;;;7.45;;
21743;SDS011;11034;48.556;9.342;2023-06-22T09:25:18;11.55;;;7.00;;
21743;SDS011;11034;48.556;9.342;2023-06-22T09:27:47;13.82;;;6.82;;
21743;SDS011;11034;48.556;9.342;2023-06-22T09:30:15;16.25;;;7.25;;
21743;SDS011;11034;48.556;9.342;2023-06-22T09:32:43;16.05;;;7.13;;
21743;SDS011;11034;48.556;9.342;2023-06-22T09:35:11;13.13;;;6.72;;
21743;SDS011;11034;48.556;9.342;2023-06-22T09:37:40;15.18;;;7.13;;
21743;SDS011;11034;48.556;9.342;2023-06-22T09:40:10;12.02;;;6.63;;
21743;SDS011;11034;48.556;9.342;2023-06-22T09:42:41;16.10;;;7.40;;
21743;SDS011;11034;48.556;9.342;2023-06-22T09:45:09;13.95;;;6.68;;
21743;SDS011;11034;48.556;9.342;2023-06-22T09:47:37;11.75;;;6.22;;
21743;SDS011;11034;48.556;9.342;2023-06-22T09:50:06;9.88;;;6.80;;
21743;SDS011;11034;48.556;9.342;2023-06-22T09:52:34;12.88;;;6.20;;
21743;SDS011;11034;48.556;9.342;2023-06-22T09:55:06;13.90;;;6.57;;
21743;SDS011;11034;48.556;9.342;2023-06-22T09:57:35;14.52;;;6.97;;
21743;SDS011;11034;48.556;9.342;2023-06-22T10:00:04;14.18;;;7.45;;
21743;SDS011;11034;48.556;9.342;2023-06-22T10:02:38;13.18;;;6.70;;
21743;SDS011;11034;48.556;9.342;2023-06-22T10:05:06;10.75;;;6.60;;
21743;SDS011;11034;48.556;9.342;2023-06-22T10:07:35;14.32;;;6.78;;
21743;SDS011;11034;48.556;9.342;2023-06-22T10:10:06;16.73;;;6.45;;
21743;SDS011;11034;48.556;9.342;2023-06-22T10:12:37;13.10;;;7.00;;
21743;SDS011;11034;48.556;9.342;2023-06-22T10:15:08;12.98;;;6.68;;
21743;SDS011;11034;48.556;9.342;2023-06-22T10:17:38;16.83;;;7.05;;
21743;SDS011;11034;48.556;9.342;2023-06-22T10:20:06;11.95;;;6.65;;
21743;SDS011;11034;48.556;9.342;2023-06-22T10:22:38;14.13;;;7.05;;
21743;SDS011;11034;48.556;9.342;2023-06-22T10:25:07;15.43;;;7.30;;
21743;SDS011;11034;48.556;9.342;2023-06-22T10:27:37;14.52;;;6.85;;
21743;SDS011;11034;48.556;9.342;2023-06-22T10:30:07;13.88;;;7.03;;
21743;SDS011;11034;48.556;9.342;2023-06-22T10:32:37;11.43;;;6.95;;
21743;SDS011;11034;48.556;9.342;2023-06-22T10:35:06;16.55;;;7.40;;
21743;SDS011;11034;48.556;9.342;2023-06-22T10:37:35;13.05;;;6.82;;
21743;SDS011;11034;48.556;9.342;2023-06-22T10:40:04;15.23;;;7.03;;
21743;SDS011;11034;48.556;9.342;2023-06-22T10:42:34;17.60;;;7.40;;
21743;SDS011;11034;48.556;9.342;2023-06-22T10:45:03;15.20;;;7.43;;
21743;SDS011;11034;48.556;9.342;2023-06-22T10:47:32;14.45;;;6.57;;
21743;SDS011;11034;48.556;9.342;2023-06-22T10:50:00;13.35;;;6.90;;
21743;SDS011;11034;48.556;9.342;2023-06-22T10:52:28;14.80;;;6.93;;
21743;SDS011;11034;48.556;9.342;2023-06-22T10:54:57;13.55;;;6.57;;
21743;SDS011;11034;48.556;9.342;2023-06-22T10:57:25;15.32;;;6.78;;
21743;SDS011;11034;48.556;9.342;2023-06-22T10:59:53;16.83;;;6.70;;
21743;SDS011;11034;48.556;9.342;2023-06-22T11:02:23;10.25;;;6.55;;
21743;SDS011;11034;48.556;9.342;2023-06-22T11:04:51;14.48;;;7.05;;
21743;SDS011;11034;48.556;9.342;2023-06-22T11:07:19;14.00;;;7.32;;
21743;SDS011;11034;48.556;9.342;2023-06-22T11:09:47;17.95;;;7.20;;
21743;SDS011;11034;48.556;9.342;2023-06-22T11:12:15;11.85;;;6.88;;
21743;SDS011;11034;48.556;9.342;2023-06-22T11:14:43;17.60;;;7.60;;
21743;SDS011;11034;48.556;9.342;2023-06-22T11:17:11;13.13;;;6.95;;
21743;SDS011;11034;48.556;9.342;2023-06-22T11:19:41;14.07;;;6.78;;
21743;SDS011;11034;48.556;9.342;2023-06-22T11:22:09;19.05;;;7.30;;
21743;SDS011;11034;48.556;9.342;2023-06-22T11:24:37;13.45;;;6.85;;
21743;SDS011;11034;48.556;9.342;2023-06-22T11:27:05;16.23;;;7.28;;
21743;SDS011;11034;48.556;9.342;2023-06-22T11:29:34;15.27;;;6.80;;
21743;SDS011;11034;48.556;9.342;2023-06-22T11:32:04;19.00;;;7.35;;
21743;SDS011;11034;48.556;9.342;2023-06-22T11:34:35;18.73;;;7.45;;
21743;SDS011;11034;48.556;9.342;2023-06-22T11:37:07;13.65;;;7.55;;
21743;SDS011;11034;48.556;9.342;2023-06-22T11:39:35;13.55;;;7.20;;
21743;SDS011;11034;48.556;9.342;2023-06-22T11:42:13;18.00;;;6.82;;
21743;SDS011;11034;48.556;9.342;2023-06-22T11:44:41;13.80;;;7.20;;
21743;SDS011;11034;48.556;9.342;2023-06-22T11:47:11;14.07;;;7.03;;
21743;SDS011;11034;48.556;9.342;2023-06-22T11:49:39;12.77;;;7.00;;
21743;SDS011;11034;48.556;9.342;2023-06-22T11:52:08;14.43;;;7.28;;
21743;SDS011;11034;48.556;9.342;2023-06-22T11:54:36;18.73;;;7.80;;
21743;SDS011;11034;48.556;9.342;2023-06-22T11:57:04;21.30;;;7.65;;
21743;SDS011;11034;48.556;9.342;2023-06-22T11:59:33;14.10;;;7.60;;
21743;SDS011;11034;48.556;9.342;2023-06-22T12:02:01;15.18;;;6.97;;
21743;SDS011;11034;48.556;9.342;2023-06-22T12:04:30;15.52;;;6.75;;
21743;SDS011;11034;48.556;9.342;2023-06-22T12:06:59;16.23;;;7.63;;
21743;SDS011;11034;48.556;9.342;2023-06-22T12:09:29;15.43;;;7.30;;
21743;SDS011;11034;48.556;9.342;2023-06-22T12:11:58;15.10;;;7.05;;
21743;SDS011;11034;48.556;9.342;2023-06-22T12:14:26;16.40;;;7.00;;
21743;SDS011;11034;48.556;9.342;2023-06-22T12:16:55;14.85;;;6.97;;
21743;SDS011;11034;48.556;9.342;2023-06-22T12:19:23;12.98;;;7.15;;
21743;SDS011;11034;48.556;9.342;2023-06-22T12:21:51;16.58;;;7.00;;
21743;SDS011;11034;48.556;9.342;2023-06-22T12:24:20;14.00;;;7.18;;
21743;SDS011;11034;48.556;9.342;2023-06-22T12:26:49;17.80;;;7.07;;
21743;SDS011;11034;48.556;9.342;2023-06-22T12:29:20;19.50;;;7.22;;
21743;SDS011;11034;48.556;9.342;2023-06-22T12:31:48;19.65;;;7.35;;
21743;SDS011;11034;48.556;9.342;2023-06-22T12:34:17;14.70;;;7.13;;
21743;SDS011;11034;48.556;9.342;2023-06-22T12:36:45;13.07;;;7.25;;
21743;SDS011;11034;48.556;9.342;2023-06-22T12:39:14;17.05;;;7.07;;
21743;SDS011;11034;48.556;9.342;2023-06-22T12:41:42;17.00;;;7.47;;
21743;SDS011;11034;48.556;9.342;2023-06-22T12:44:12;17.13;;;6.90;;
21743;SDS011;11034;48.556;9.342;2023-06-22T12:46:40;16.30;;;6.70;;
21743;SDS011;11034;48.556;9.342;2023-06-22T12:49:08;11.40;;;6.72;;
21743;SDS011;11034;48.556;9.342;2023-06-22T12:51:39;13.82;;;6.63;;
21743;SDS011;11034;48.556;9.342;2023-06-22T12:54:08;16.75;;;6.90;;
21743;SDS011;11034;48.556;9.342;2023-06-22T12:56:37;17.05;;;6.95;;
21743;SDS011;11034;48.556;9.342;2023-06-22T12:59:05;17.13;;;7.25;;
21743;SDS011;11034;48.556;9.342;2023-06-22T13:01:35;14.23;;;6.97;;
21743;SDS011;11034;48.556;9.342;2023-06-22T13:04:03;14.77;;;6.63;;
21743;SDS011;11034;48.556;9.342;2023-06-22T13:06:31;15.70;;;6.72;;
21743;SDS011;11034;48.556;9.342;2023-06-22T13:09:00;17.40;;;6.75;;
21743;SDS011;11034;48.556;9.342;2023-06-22T13:11:30;13.75;;;6.60;;
21743;SDS011;11034;48.556;9.342;2023-06-22T13:13:58;23.77;;;7.07;;
21743;SDS011;11034;48.556;9.342;2023-06-22T13:16:28;13.80;;;6.47;;
21743;SDS011;11034;48.556;9.342;2023-06-22T13:18:58;14.50;;;7.07;;
21743;SDS011;11034;48.556;9.342;2023-06-22T13:21:26;14.82;;;6.47;;
21743;SDS011;11034;48.556;9.342;2023-06-22T13:23:54;14.63;;;7.38;;
21743;SDS011;11034;48.556;9.342;2023-06-22T13:26:22;17.15;;;6.63;;
21743;SDS011;11034;48.556;9.342;2023-06-22T13:28:50;17.38;;;6.57;;
21743;SDS011;11034;48.556;9.342;2023-06-22T13:31:18;12.77;;;6.65;;
21743;SDS011;11034;48.556;9.342;2023-06-22T13:33:46;16.02;;;6.40;;
21743;SDS011;11034;48.556;9.342;2023-06-22T13:36:16;15.82;;;6.20;;
21743;SDS011;11034;48.556;9.342;2023-06-22T13:38:44;12.48;;;6.32;;
21743;SDS011;11034;48.556;9.342;2023-06-22T13:41:13;15.38;;;6.45;;
21743;SDS011;11034;48.556;9.342;2023-06-22T13:43:41;23.70;;;6.82;;
21743;SDS011;11034;48.556;9.342;2023-06-22T13:46:09;13.20;;;6.32;;
21743;SDS011;11034;48.556;9.342;2023-06-22T13:48:37;14.75;;;6.68;;
21743;SDS011;11034;48.556;9.342;2023-06-22T13:51:05;22.55;;;6.90;;
21743;SDS011;11034;48.556;9.342;2023-06-22T13:53:35;19.17;;;7.28;;
21743;SDS011;11034;48.556;9.342;2023-06-22T13:56:03;18.00;;;6.70;;
21743;SDS011;11034;48.556;9.342;2023-06-22T13:58:31;14.18;;;6.57;;
21743;SDS011;11034;48.556;9.342;2023-06-22T14:00:59;12.10;;;6.45;;
21743;SDS011;11034;48.556;9.342;2023-06-22T14:03:27;15.40;;;6.40;;
21743;SDS011;11034;48.556;9.342;2023-06-22T14:05:55;17.13;;;6.47;;
21743;SDS011;11034;48.556;9.342;2023-06-22T14:08:24;13.70;;;6.72;;
21743;SDS011;11034;48.556;9.342;2023-06-22T14:10:56;13.18;;;6.22;;
21743;SDS011;11034;48.556;9.342;2023-06-22T14:13:25;19.63;;;6.63;;
21743;SDS011;11034;48.556;9.342;2023-06-22T14:15:54;18.02;;;6.80;;
21743;SDS011;11034;48.556;9.342;2023-06-22T14:18:22;12.73;;;6.90;;
21743;SDS011;11034;48.556;9.342;2023-06-22T14:20:50;14.68;;;6.82;;
21743;SDS011;11034;48.556;9.342;2023-06-22T14:23:18;15.93;;;7.10;;
21743;SDS011;11034;48.556;9.342;2023-06-22T14:25:46;14.20;;;6.78;;
21743;SDS011;11034;48.556;9.342;2023-06-22T14:28:16;14.63;;;6.90;;
21743;SDS011;11034;48.556;9.342;2023-06-22T14:30:44;13.70;;;6.88;;
21743;SDS011;11034;48.556;9.342;2023-06-22T14:33:12;20.45;;;7.13;;
21743;SDS011;11034;48.556;9.342;2023-06-22T14:35:40;15.07;;;7.32;;
21743;SDS011;11034;48.556;9.342;2023-06-22T14:38:08;17.05;;;6.40;;
21743;SDS011;11034;48.556;9.342;2023-06-22T14:40:37;16.55;;;6.63;;
21743;SDS011;11034;48.556;9.342;2023-06-22T14:43:26;15.93;;;6.28;;
21743;SDS011;11034;48.556;9.342;2023-06-22T14:45:54;15.63;;;6.57;;